sensor_id;sensor_type;location;lat;lon;timestamp;P1;durP1;ratioP1;P2;durP2;ratioP2
6135;SDS011;24008;42.664;23.372;2022-10-31T00:01:59;10.67;;;6.60;;
6135;SDS011;24008;42.664;23.372;2022-10-31T00:04:26;7.30;;;5.60;;
6135;SDS011;24008;42.664;23.372;2022-10-31T00:06:53;7.73;;;5.40;;
6135;SDS011;24008;42.664;23.372;2022-10-31T00:09:21;11.50;;;5.70;;
6135;SDS011;24008;42.664;23.372;2022-10-31T00:11:48;7.83;;;5.07;;
6135;SDS011;24008;42.664;23.372;2022-10-31T00:14:14;8.27;;;5.70;;
6135;SDS011;24008;42.664;23.372;2022-10-31T00:16:41;8.93;;;5.00;;
6135;SDS011;24008;42.664;23.372;2022-10-31T00:19:08;7.57;;;5.20;;
6135;SDS011;24008;42.664;23.372;2022-10-31T00:21:54;6.83;;;5.00;;
6135;SDS011;24008;42.664;23.372;2022-10-31T00:24:22;10.17;;;5.40;;
6135;SDS011;24008;42.664;23.372;2022-10-31T00:26:48;7.63;;;5.70;;
6135;SDS011;24008;42.664;23.372;2022-10-31T00:29:15;9.37;;;5.50;;
6135;SDS011;24008;42.664;23.372;2022-10-31T00:31:42;7.60;;;5.23;;
6135;SDS011;24008;42.664;23.372;2022-10-31T00:34:09;8.67;;;5.87;;
6135;SDS011;24008;42.664;23.372;2022-10-31T00:36:35;8.27;;;5.77;;
6135;SDS011;24008;42.664;23.372;2022-10-31T00:39:02;9.33;;;5.30;;
6135;SDS011;24008;42.664;23.372;2022-10-31T00:41:30;7.73;;;5.40;;
6135;SDS011;24008;42.664;23.372;2022-10-31T00:43:57;9.53;;;5.83;;
6135;SDS011;24008;42.664;23.372;2022-10-31T00:46:24;8.97;;;5.60;;
6135;SDS011;24008;42.664;23.372;2022-10-31T00:48:50;8.37;;;5.50;;
6135;SDS011;24008;42.664;23.372;2022-10-31T00:51:17;9.33;;;5.40;;
6135;SDS011;24008;42.664;23.372;2022-10-31T00:53:44;8.17;;;5.30;;
6135;SDS011;24008;42.664;23.372;2022-10-31T00:56:11;7.83;;;5.50;;
6135;SDS011;24008;42.664;23.372;2022-10-31T00:58:39;6.83;;;5.33;;
6135;SDS011;24008;42.664;23.372;2022-10-31T01:01:06;7.27;;;5.47;;
6135;SDS011;24008;42.664;23.372;2022-10-31T01:03:33;6.93;;;5.70;;
6135;SDS011;24008;42.664;23.372;2022-10-31T01:06:00;7.23;;;5.47;;
6135;SDS011;24008;42.664;23.372;2022-10-31T01:08:29;9.00;;;5.63;;
6135;SDS011;24008;42.664;23.372;2022-10-31T01:11:03;8.30;;;5.70;;
6135;SDS011;24008;42.664;23.372;2022-10-31T01:13:33;8.53;;;6.20;;
6135;SDS011;24008;42.664;23.372;2022-10-31T01:16:02;10.10;;;6.60;;
6135;SDS011;24008;42.664;23.372;2022-10-31T01:18:31;13.93;;;7.17;;
6135;SDS011;24008;42.664;23.372;2022-10-31T01:20:59;15.07;;;8.87;;
6135;SDS011;24008;42.664;23.372;2022-10-31T01:23:27;11.40;;;8.30;;
6135;SDS011;24008;42.664;23.372;2022-10-31T01:26:07;12.60;;;8.30;;
6135;SDS011;24008;42.664;23.372;2022-10-31T01:28:35;13.43;;;8.83;;
6135;SDS011;24008;42.664;23.372;2022-10-31T01:31:06;13.23;;;9.90;;
6135;SDS011;24008;42.664;23.372;2022-10-31T01:33:34;15.40;;;10.37;;
6135;SDS011;24008;42.664;23.372;2022-10-31T01:36:10;18.83;;;10.53;;
6135;SDS011;24008;42.664;23.372;2022-10-31T01:38:37;18.80;;;10.67;;
6135;SDS011;24008;42.664;23.372;2022-10-31T01:41:04;14.13;;;10.07;;
6135;SDS011;24008;42.664;23.372;2022-10-31T01:43:41;14.03;;;10.00;;
6135;SDS011;24008;42.664;23.372;2022-10-31T01:46:10;19.97;;;10.50;;
6135;SDS011;24008;42.664;23.372;2022-10-31T01:48:38;17.67;;;11.03;;
6135;SDS011;24008;42.664;23.372;2022-10-31T01:51:06;13.77;;;10.33;;
6135;SDS011;24008;42.664;23.372;2022-10-31T01:53:36;14.90;;;9.93;;
6135;SDS011;24008;42.664;23.372;2022-10-31T01:56:04;15.40;;;10.60;;
6135;SDS011;24008;42.664;23.372;2022-10-31T01:58:31;16.00;;;9.93;;
6135;SDS011;24008;42.664;23.372;2022-10-31T02:00:59;15.63;;;10.37;;
6135;SDS011;24008;42.664;23.372;2022-10-31T02:03:27;19.63;;;11.53;;
6135;SDS011;24008;42.664;23.372;2022-10-31T02:05:55;14.63;;;10.10;;
6135;SDS011;24008;42.664;23.372;2022-10-31T02:08:25;15.83;;;10.50;;
6135;SDS011;24008;42.664;23.372;2022-10-31T02:10:54;15.47;;;10.00;;
6135;SDS011;24008;42.664;23.372;2022-10-31T02:13:22;17.07;;;10.43;;
6135;SDS011;24008;42.664;23.372;2022-10-31T02:15:51;12.93;;;9.83;;
6135;SDS011;24008;42.664;23.372;2022-10-31T02:18:20;14.27;;;9.67;;
6135;SDS011;24008;42.664;23.372;2022-10-31T02:20:52;16.17;;;9.87;;
6135;SDS011;24008;42.664;23.372;2022-10-31T02:26:41;10.97;;;7.83;;
6135;SDS011;24008;42.664;23.372;2022-10-31T02:32:32;11.80;;;6.40;;
6135;SDS011;24008;42.664;23.372;2022-10-31T02:35:12;10.67;;;6.90;;
6135;SDS011;24008;42.664;23.372;2022-10-31T02:37:53;12.80;;;7.63;;
6135;SDS011;24008;42.664;23.372;2022-10-31T02:40:26;11.20;;;6.73;;
6135;SDS011;24008;42.664;23.372;2022-10-31T02:42:57;9.70;;;7.00;;
6135;SDS011;24008;42.664;23.372;2022-10-31T02:45:32;12.90;;;7.00;;
6135;SDS011;24008;42.664;23.372;2022-10-31T02:48:08;15.47;;;8.73;;
6135;SDS011;24008;42.664;23.372;2022-10-31T02:50:39;11.67;;;7.47;;
6135;SDS011;24008;42.664;23.372;2022-10-31T02:53:10;16.97;;;8.47;;
6135;SDS011;24008;42.664;23.372;2022-10-31T02:55:51;13.53;;;8.47;;
6135;SDS011;24008;42.664;23.372;2022-10-31T02:58:24;16.47;;;9.30;;
6135;SDS011;24008;42.664;23.372;2022-10-31T03:07:11;13.57;;;8.67;;
6135;SDS011;24008;42.664;23.372;2022-10-31T03:09:46;14.00;;;8.47;;
6135;SDS011;24008;42.664;23.372;2022-10-31T03:12:46;17.60;;;8.63;;
6135;SDS011;24008;42.664;23.372;2022-10-31T03:15:21;14.23;;;9.23;;
6135;SDS011;24008;42.664;23.372;2022-10-31T03:17:53;20.97;;;10.10;;
6135;SDS011;24008;42.664;23.372;2022-10-31T03:20:26;14.63;;;10.20;;
6135;SDS011;24008;42.664;23.372;2022-10-31T03:22:57;20.33;;;9.80;;
6135;SDS011;24008;42.664;23.372;2022-10-31T03:25:27;16.87;;;9.40;;
6135;SDS011;24008;42.664;23.372;2022-10-31T03:27:55;19.10;;;10.33;;
6135;SDS011;24008;42.664;23.372;2022-10-31T03:30:23;17.03;;;9.83;;
6135;SDS011;24008;42.664;23.372;2022-10-31T03:32:51;16.60;;;10.07;;
6135;SDS011;24008;42.664;23.372;2022-10-31T03:35:20;15.50;;;9.47;;
6135;SDS011;24008;42.664;23.372;2022-10-31T03:37:51;14.40;;;8.63;;
6135;SDS011;24008;42.664;23.372;2022-10-31T03:40:21;14.70;;;8.20;;
6135;SDS011;24008;42.664;23.372;2022-10-31T03:42:51;14.63;;;9.80;;
6135;SDS011;24008;42.664;23.372;2022-10-31T03:45:23;15.03;;;8.93;;
6135;SDS011;24008;42.664;23.372;2022-10-31T03:47:52;14.90;;;9.47;;
6135;SDS011;24008;42.664;23.372;2022-10-31T03:50:20;15.90;;;10.13;;
6135;SDS011;24008;42.664;23.372;2022-10-31T03:52:52;16.83;;;10.90;;
6135;SDS011;24008;42.664;23.372;2022-10-31T03:55:25;14.87;;;10.60;;
6135;SDS011;24008;42.664;23.372;2022-10-31T03:57:57;16.57;;;10.80;;
6135;SDS011;24008;42.664;23.372;2022-10-31T04:00:26;15.27;;;11.07;;
6135;SDS011;24008;42.664;23.372;2022-10-31T04:02:57;15.33;;;9.87;;
6135;SDS011;24008;42.664;23.372;2022-10-31T04:05:26;23.83;;;11.37;;
6135;SDS011;24008;42.664;23.372;2022-10-31T04:07:54;17.33;;;10.27;;
6135;SDS011;24008;42.664;23.372;2022-10-31T04:10:26;14.47;;;9.87;;
6135;SDS011;24008;42.664;23.372;2022-10-31T04:12:56;21.47;;;9.70;;
6135;SDS011;24008;42.664;23.372;2022-10-31T04:15:27;14.07;;;9.70;;
6135;SDS011;24008;42.664;23.372;2022-10-31T04:17:55;16.33;;;10.23;;
6135;SDS011;24008;42.664;23.372;2022-10-31T04:20:31;12.90;;;9.63;;
6135;SDS011;24008;42.664;23.372;2022-10-31T04:22:59;19.33;;;9.63;;
6135;SDS011;24008;42.664;23.372;2022-10-31T04:25:28;20.93;;;10.27;;
6135;SDS011;24008;42.664;23.372;2022-10-31T04:27:55;18.33;;;10.50;;
6135;SDS011;24008;42.664;23.372;2022-10-31T04:30:21;17.43;;;9.97;;
6135;SDS011;24008;42.664;23.372;2022-10-31T04:32:48;15.33;;;9.60;;
6135;SDS011;24008;42.664;23.372;2022-10-31T04:35:15;17.00;;;10.57;;
6135;SDS011;24008;42.664;23.372;2022-10-31T04:37:42;16.03;;;9.97;;
6135;SDS011;24008;42.664;23.372;2022-10-31T04:40:09;18.63;;;11.20;;
6135;SDS011;24008;42.664;23.372;2022-10-31T04:42:38;17.77;;;10.20;;
6135;SDS011;24008;42.664;23.372;2022-10-31T04:45:05;18.83;;;11.80;;
6135;SDS011;24008;42.664;23.372;2022-10-31T04:47:32;19.00;;;12.40;;
6135;SDS011;24008;42.664;23.372;2022-10-31T04:49:59;23.63;;;12.53;;
6135;SDS011;24008;42.664;23.372;2022-10-31T04:52:27;25.70;;;12.73;;
6135;SDS011;24008;42.664;23.372;2022-10-31T04:54:53;20.60;;;13.03;;
6135;SDS011;24008;42.664;23.372;2022-10-31T04:57:20;16.07;;;11.50;;
6135;SDS011;24008;42.664;23.372;2022-10-31T04:59:48;23.37;;;13.10;;
6135;SDS011;24008;42.664;23.372;2022-10-31T05:02:15;23.67;;;13.50;;
6135;SDS011;24008;42.664;23.372;2022-10-31T05:04:51;26.03;;;16.43;;
6135;SDS011;24008;42.664;23.372;2022-10-31T05:07:18;22.57;;;12.13;;
6135;SDS011;24008;42.664;23.372;2022-10-31T05:09:45;19.60;;;13.23;;
6135;SDS011;24008;42.664;23.372;2022-10-31T05:12:11;25.10;;;16.37;;
6135;SDS011;24008;42.664;23.372;2022-10-31T05:14:38;23.10;;;14.47;;
6135;SDS011;24008;42.664;23.372;2022-10-31T05:17:06;20.93;;;11.53;;
6135;SDS011;24008;42.664;23.372;2022-10-31T05:19:33;21.57;;;14.47;;
6135;SDS011;24008;42.664;23.372;2022-10-31T05:21:59;24.67;;;15.10;;
6135;SDS011;24008;42.664;23.372;2022-10-31T05:24:26;21.43;;;13.77;;
6135;SDS011;24008;42.664;23.372;2022-10-31T05:26:53;23.90;;;14.40;;
6135;SDS011;24008;42.664;23.372;2022-10-31T05:29:20;18.33;;;13.00;;
6135;SDS011;24008;42.664;23.372;2022-10-31T05:31:46;25.40;;;13.97;;
6135;SDS011;24008;42.664;23.372;2022-10-31T05:34:14;22.37;;;13.63;;
6135;SDS011;24008;42.664;23.372;2022-10-31T05:36:41;25.50;;;14.13;;
6135;SDS011;24008;42.664;23.372;2022-10-31T05:39:08;21.83;;;14.03;;
6135;SDS011;24008;42.664;23.372;2022-10-31T05:41:35;27.30;;;14.37;;
6135;SDS011;24008;42.664;23.372;2022-10-31T05:44:01;21.87;;;14.17;;
6135;SDS011;24008;42.664;23.372;2022-10-31T05:46:28;20.60;;;13.73;;
6135;SDS011;24008;42.664;23.372;2022-10-31T05:48:55;21.47;;;13.80;;
6135;SDS011;24008;42.664;23.372;2022-10-31T05:51:23;23.40;;;14.73;;
6135;SDS011;24008;42.664;23.372;2022-10-31T05:53:50;22.43;;;14.47;;
6135;SDS011;24008;42.664;23.372;2022-10-31T05:56:17;23.17;;;15.60;;
6135;SDS011;24008;42.664;23.372;2022-10-31T05:58:44;23.40;;;15.57;;
6135;SDS011;24008;42.664;23.372;2022-10-31T06:01:11;26.57;;;15.53;;
6135;SDS011;24008;42.664;23.372;2022-10-31T06:03:37;23.37;;;15.50;;
6135;SDS011;24008;42.664;23.372;2022-10-31T06:06:04;24.10;;;14.57;;
6135;SDS011;24008;42.664;23.372;2022-10-31T06:08:32;18.77;;;13.43;;
6135;SDS011;24008;42.664;23.372;2022-10-31T06:10:59;27.57;;;14.67;;
6135;SDS011;24008;42.664;23.372;2022-10-31T06:13:26;21.40;;;13.80;;
6135;SDS011;24008;42.664;23.372;2022-10-31T06:15:53;23.27;;;14.37;;
6135;SDS011;24008;42.664;23.372;2022-10-31T06:18:19;18.97;;;13.83;;
6135;SDS011;24008;42.664;23.372;2022-10-31T06:20:46;20.77;;;13.60;;
6135;SDS011;24008;42.664;23.372;2022-10-31T06:23:13;19.93;;;13.33;;
6135;SDS011;24008;42.664;23.372;2022-10-31T06:25:41;24.20;;;14.50;;
6135;SDS011;24008;42.664;23.372;2022-10-31T06:28:08;25.20;;;14.30;;
6135;SDS011;24008;42.664;23.372;2022-10-31T06:30:35;23.93;;;13.50;;
6135;SDS011;24008;42.664;23.372;2022-10-31T06:33:02;25.57;;;15.03;;
6135;SDS011;24008;42.664;23.372;2022-10-31T06:35:29;23.63;;;15.63;;
6135;SDS011;24008;42.664;23.372;2022-10-31T06:37:56;28.77;;;16.30;;
6135;SDS011;24008;42.664;23.372;2022-10-31T06:40:25;23.33;;;15.10;;
6135;SDS011;24008;42.664;23.372;2022-10-31T06:43:00;25.83;;;16.53;;
6135;SDS011;24008;42.664;23.372;2022-10-31T06:45:27;23.90;;;16.30;;
6135;SDS011;24008;42.664;23.372;2022-10-31T06:47:54;26.73;;;16.13;;
6135;SDS011;24008;42.664;23.372;2022-10-31T06:50:22;23.93;;;16.03;;
6135;SDS011;24008;42.664;23.372;2022-10-31T06:52:52;26.70;;;15.77;;
6135;SDS011;24008;42.664;23.372;2022-10-31T06:55:19;22.30;;;15.57;;
6135;SDS011;24008;42.664;23.372;2022-10-31T06:57:50;26.70;;;16.40;;
6135;SDS011;24008;42.664;23.372;2022-10-31T07:00:19;28.07;;;17.17;;
6135;SDS011;24008;42.664;23.372;2022-10-31T07:02:52;23.27;;;15.83;;
6135;SDS011;24008;42.664;23.372;2022-10-31T07:05:20;21.93;;;15.13;;
6135;SDS011;24008;42.664;23.372;2022-10-31T07:07:46;24.27;;;14.83;;
6135;SDS011;24008;42.664;23.372;2022-10-31T07:10:13;19.57;;;15.07;;
6135;SDS011;24008;42.664;23.372;2022-10-31T07:12:40;23.45;;;14.68;;
6135;SDS011;24008;42.664;23.372;2022-10-31T07:15:07;23.27;;;15.37;;
6135;SDS011;24008;42.664;23.372;2022-10-31T07:17:35;22.90;;;15.63;;
6135;SDS011;24008;42.664;23.372;2022-10-31T07:20:02;21.17;;;16.05;;
6135;SDS011;24008;42.664;23.372;2022-10-31T07:22:33;21.77;;;15.52;;
6135;SDS011;24008;42.664;23.372;2022-10-31T07:25:00;21.33;;;16.08;;
6135;SDS011;24008;42.664;23.372;2022-10-31T07:27:27;22.58;;;16.25;;
6135;SDS011;24008;42.664;23.372;2022-10-31T07:29:54;24.58;;;17.08;;
6135;SDS011;24008;42.664;23.372;2022-10-31T07:32:21;23.75;;;16.98;;
6135;SDS011;24008;42.664;23.372;2022-10-31T07:34:49;26.85;;;17.25;;
6135;SDS011;24008;42.664;23.372;2022-10-31T07:37:15;21.73;;;17.05;;
6135;SDS011;24008;42.664;23.372;2022-10-31T07:39:42;22.17;;;16.85;;
6135;SDS011;24008;42.664;23.372;2022-10-31T07:42:09;27.65;;;17.50;;
6135;SDS011;24008;42.664;23.372;2022-10-31T07:44:36;23.00;;;16.48;;
6135;SDS011;24008;42.664;23.372;2022-10-31T07:47:02;27.15;;;17.15;;
6135;SDS011;24008;42.664;23.372;2022-10-31T07:49:29;27.00;;;17.05;;
6135;SDS011;24008;42.664;23.372;2022-10-31T07:51:57;27.17;;;18.83;;
6135;SDS011;24008;42.664;23.372;2022-10-31T07:54:24;26.80;;;19.50;;
6135;SDS011;24008;42.664;23.372;2022-10-31T07:56:51;33.17;;;18.63;;
6135;SDS011;24008;42.664;23.372;2022-10-31T07:59:17;30.48;;;19.35;;
6135;SDS011;24008;42.664;23.372;2022-10-31T08:01:44;27.77;;;19.25;;
6135;SDS011;24008;42.664;23.372;2022-10-31T08:04:11;27.55;;;18.85;;
6135;SDS011;24008;42.664;23.372;2022-10-31T08:06:38;30.17;;;18.30;;
6135;SDS011;24008;42.664;23.372;2022-10-31T08:09:06;25.20;;;18.05;;
6135;SDS011;24008;42.664;23.372;2022-10-31T08:11:33;28.40;;;17.73;;
6135;SDS011;24008;42.664;23.372;2022-10-31T08:13:59;29.92;;;19.00;;
6135;SDS011;24008;42.664;23.372;2022-10-31T08:16:26;24.83;;;17.98;;
6135;SDS011;24008;42.664;23.372;2022-10-31T08:18:53;24.15;;;18.05;;
6135;SDS011;24008;42.664;23.372;2022-10-31T08:21:21;22.63;;;17.45;;
6135;SDS011;24008;42.664;23.372;2022-10-31T08:23:47;22.80;;;17.30;;
6135;SDS011;24008;42.664;23.372;2022-10-31T08:26:16;22.92;;;16.60;;
6135;SDS011;24008;42.664;23.372;2022-10-31T08:28:42;26.58;;;17.48;;
6135;SDS011;24008;42.664;23.372;2022-10-31T08:31:09;25.45;;;17.02;;
6135;SDS011;24008;42.664;23.372;2022-10-31T08:33:36;24.80;;;17.60;;
6135;SDS011;24008;42.664;23.372;2022-10-31T08:36:06;23.23;;;17.23;;
6135;SDS011;24008;42.664;23.372;2022-10-31T08:38:34;24.67;;;17.52;;
6135;SDS011;24008;42.664;23.372;2022-10-31T08:41:00;23.70;;;18.02;;
6135;SDS011;24008;42.664;23.372;2022-10-31T08:43:29;26.95;;;17.52;;
6135;SDS011;24008;42.664;23.372;2022-10-31T08:45:55;23.23;;;17.65;;
6135;SDS011;24008;42.664;23.372;2022-10-31T08:48:22;25.95;;;17.70;;
6135;SDS011;24008;42.664;23.372;2022-10-31T08:50:49;40.75;;;18.73;;
6135;SDS011;24008;42.664;23.372;2022-10-31T08:53:16;29.73;;;18.40;;
6135;SDS011;24008;42.664;23.372;2022-10-31T08:55:44;24.58;;;18.02;;
6135;SDS011;24008;42.664;23.372;2022-10-31T08:58:13;23.08;;;16.88;;
6135;SDS011;24008;42.664;23.372;2022-10-31T09:00:43;27.02;;;18.45;;
6135;SDS011;24008;42.664;23.372;2022-10-31T09:03:11;27.88;;;17.45;;
6135;SDS011;24008;42.664;23.372;2022-10-31T09:05:39;27.23;;;16.55;;
6135;SDS011;24008;42.664;23.372;2022-10-31T09:08:06;31.27;;;17.05;;
6135;SDS011;24008;42.664;23.372;2022-10-31T09:10:36;27.10;;;16.50;;
6135;SDS011;24008;42.664;23.372;2022-10-31T09:13:04;24.98;;;16.75;;
6135;SDS011;24008;42.664;23.372;2022-10-31T09:15:32;22.13;;;14.70;;
6135;SDS011;24008;42.664;23.372;2022-10-31T09:18:01;21.30;;;14.05;;
6135;SDS011;24008;42.664;23.372;2022-10-31T09:20:29;23.50;;;15.00;;
6135;SDS011;24008;42.664;23.372;2022-10-31T09:22:57;22.50;;;13.98;;
6135;SDS011;24008;42.664;23.372;2022-10-31T09:25:25;19.13;;;14.60;;
6135;SDS011;24008;42.664;23.372;2022-10-31T09:27:55;25.55;;;15.05;;
6135;SDS011;24008;42.664;23.372;2022-10-31T09:30:24;24.58;;;15.15;;
6135;SDS011;24008;42.664;23.372;2022-10-31T09:32:54;18.10;;;14.20;;
6135;SDS011;24008;42.664;23.372;2022-10-31T09:35:23;23.73;;;14.45;;
6135;SDS011;24008;42.664;23.372;2022-10-31T09:37:53;20.15;;;14.43;;
6135;SDS011;24008;42.664;23.372;2022-10-31T09:40:21;19.65;;;14.30;;
6135;SDS011;24008;42.664;23.372;2022-10-31T09:42:52;19.45;;;13.18;;
6135;SDS011;24008;42.664;23.372;2022-10-31T09:45:27;21.55;;;14.35;;
6135;SDS011;24008;42.664;23.372;2022-10-31T09:48:08;18.95;;;14.43;;
6135;SDS011;24008;42.664;23.372;2022-10-31T09:50:54;23.77;;;14.60;;
6135;SDS011;24008;42.664;23.372;2022-10-31T09:53:27;26.10;;;14.80;;
6135;SDS011;24008;42.664;23.372;2022-10-31T09:56:00;21.95;;;14.27;;
6135;SDS011;24008;42.664;23.372;2022-10-31T09:58:40;18.92;;;13.85;;
6135;SDS011;24008;42.664;23.372;2022-10-31T10:01:14;20.50;;;12.55;;
6135;SDS011;24008;42.664;23.372;2022-10-31T10:03:50;18.08;;;12.68;;
6135;SDS011;24008;42.664;23.372;2022-10-31T10:06:23;24.45;;;13.07;;
6135;SDS011;24008;42.664;23.372;2022-10-31T10:08:53;23.65;;;12.55;;
6135;SDS011;24008;42.664;23.372;2022-10-31T10:11:25;24.55;;;12.48;;
6135;SDS011;24008;42.664;23.372;2022-10-31T10:14:06;17.45;;;10.55;;
6135;SDS011;24008;42.664;23.372;2022-10-31T10:16:47;13.63;;;8.48;;
6135;SDS011;24008;42.664;23.372;2022-10-31T10:19:28;14.30;;;7.85;;
6135;SDS011;24008;42.664;23.372;2022-10-31T10:22:08;15.68;;;8.85;;
6135;SDS011;24008;42.664;23.372;2022-10-31T10:24:43;19.67;;;11.77;;
6135;SDS011;24008;42.664;23.372;2022-10-31T10:27:23;14.52;;;8.50;;
6135;SDS011;24008;42.664;23.372;2022-10-31T10:29:58;17.30;;;9.55;;
6135;SDS011;24008;42.664;23.372;2022-10-31T10:32:30;18.60;;;9.68;;
6135;SDS011;24008;42.664;23.372;2022-10-31T10:35:09;19.10;;;10.68;;
6135;SDS011;24008;42.664;23.372;2022-10-31T10:37:42;17.70;;;10.55;;
6135;SDS011;24008;42.664;23.372;2022-10-31T10:40:13;13.75;;;8.40;;
6135;SDS011;24008;42.664;23.372;2022-10-31T10:42:44;15.48;;;8.60;;
6135;SDS011;24008;42.664;23.372;2022-10-31T10:45:33;13.63;;;7.43;;
6135;SDS011;24008;42.664;23.372;2022-10-31T10:48:20;13.45;;;7.70;;
6135;SDS011;24008;42.664;23.372;2022-10-31T10:50:57;15.55;;;7.43;;
6135;SDS011;24008;42.664;23.372;2022-10-31T10:53:29;14.27;;;6.65;;
6135;SDS011;24008;42.664;23.372;2022-10-31T10:56:26;14.57;;;8.07;;
6135;SDS011;24008;42.664;23.372;2022-10-31T10:59:03;12.70;;;8.05;;
6135;SDS011;24008;42.664;23.372;2022-10-31T11:01:30;10.95;;;7.63;;
6135;SDS011;24008;42.664;23.372;2022-10-31T11:03:56;10.65;;;7.00;;
6135;SDS011;24008;42.664;23.372;2022-10-31T11:06:23;12.02;;;6.70;;
6135;SDS011;24008;42.664;23.372;2022-10-31T11:08:52;10.80;;;5.53;;
6135;SDS011;24008;42.664;23.372;2022-10-31T11:11:22;13.88;;;5.03;;
6135;SDS011;24008;42.664;23.372;2022-10-31T11:13:55;8.02;;;4.43;;
6135;SDS011;24008;42.664;23.372;2022-10-31T11:16:28;8.80;;;4.78;;
6135;SDS011;24008;42.664;23.372;2022-10-31T11:19:08;13.68;;;5.43;;
6135;SDS011;24008;42.664;23.372;2022-10-31T11:21:40;10.07;;;4.65;;
6135;SDS011;24008;42.664;23.372;2022-10-31T11:24:13;8.50;;;4.82;;
6135;SDS011;24008;42.664;23.372;2022-10-31T11:26:43;11.73;;;5.35;;
6135;SDS011;24008;42.664;23.372;2022-10-31T11:29:14;8.38;;;4.90;;
6135;SDS011;24008;42.664;23.372;2022-10-31T11:31:43;9.93;;;5.65;;
6135;SDS011;24008;42.664;23.372;2022-10-31T11:34:14;11.23;;;4.70;;
6135;SDS011;24008;42.664;23.372;2022-10-31T11:36:45;14.10;;;5.13;;
6135;SDS011;24008;42.664;23.372;2022-10-31T11:39:15;8.93;;;5.18;;
6135;SDS011;24008;42.664;23.372;2022-10-31T11:41:44;14.18;;;5.45;;
6135;SDS011;24008;42.664;23.372;2022-10-31T11:44:12;11.27;;;4.95;;
6135;SDS011;24008;42.664;23.372;2022-10-31T11:46:43;11.35;;;5.10;;
6135;SDS011;24008;42.664;23.372;2022-10-31T11:49:14;10.23;;;5.28;;
6135;SDS011;24008;42.664;23.372;2022-10-31T11:51:43;9.80;;;4.78;;
6135;SDS011;24008;42.664;23.372;2022-10-31T11:54:19;10.73;;;5.28;;
6135;SDS011;24008;42.664;23.372;2022-10-31T11:56:48;10.02;;;4.93;;
6135;SDS011;24008;42.664;23.372;2022-10-31T11:59:17;11.05;;;5.30;;
6135;SDS011;24008;42.664;23.372;2022-10-31T12:02:14;10.73;;;4.80;;
6135;SDS011;24008;42.664;23.372;2022-10-31T12:04:46;9.00;;;4.70;;
6135;SDS011;24008;42.664;23.372;2022-10-31T12:07:13;10.00;;;4.55;;
6135;SDS011;24008;42.664;23.372;2022-10-31T12:09:41;9.90;;;5.15;;
6135;SDS011;24008;42.664;23.372;2022-10-31T12:12:12;10.23;;;4.90;;
6135;SDS011;24008;42.664;23.372;2022-10-31T12:14:51;13.05;;;5.32;;
6135;SDS011;24008;42.664;23.372;2022-10-31T12:17:29;12.18;;;5.32;;
6135;SDS011;24008;42.664;23.372;2022-10-31T12:20:04;15.35;;;4.68;;
6135;SDS011;24008;42.664;23.372;2022-10-31T12:22:40;10.30;;;4.72;;
6135;SDS011;24008;42.664;23.372;2022-10-31T12:25:18;8.43;;;4.68;;
6135;SDS011;24008;42.664;23.372;2022-10-31T12:28:08;12.73;;;4.45;;
6135;SDS011;24008;42.664;23.372;2022-10-31T12:30:51;9.25;;;4.47;;
6135;SDS011;24008;42.664;23.372;2022-10-31T12:33:33;10.35;;;4.60;;
6135;SDS011;24008;42.664;23.372;2022-10-31T12:36:11;9.13;;;4.35;;
6135;SDS011;24008;42.664;23.372;2022-10-31T12:38:51;7.90;;;4.65;;
6135;SDS011;24008;42.664;23.372;2022-10-31T12:41:31;10.30;;;4.50;;
6135;SDS011;24008;42.664;23.372;2022-10-31T12:44:12;10.50;;;4.68;;
6135;SDS011;24008;42.664;23.372;2022-10-31T12:46:53;7.32;;;4.05;;
6135;SDS011;24008;42.664;23.372;2022-10-31T12:49:34;10.15;;;5.30;;
6135;SDS011;24008;42.664;23.372;2022-10-31T12:52:19;9.55;;;4.60;;
6135;SDS011;24008;42.664;23.372;2022-10-31T12:55:08;11.32;;;5.40;;
6135;SDS011;24008;42.664;23.372;2022-10-31T12:57:44;9.43;;;4.65;;
6135;SDS011;24008;42.664;23.372;2022-10-31T13:00:14;12.15;;;5.38;;
6135;SDS011;24008;42.664;23.372;2022-10-31T13:02:44;8.65;;;4.53;;
6135;SDS011;24008;42.664;23.372;2022-10-31T13:05:27;12.15;;;5.47;;
6135;SDS011;24008;42.664;23.372;2022-10-31T13:07:58;11.85;;;5.18;;
6135;SDS011;24008;42.664;23.372;2022-10-31T13:10:29;14.45;;;5.22;;
6135;SDS011;24008;42.664;23.372;2022-10-31T13:13:02;14.60;;;4.57;;
6135;SDS011;24008;42.664;23.372;2022-10-31T13:15:35;18.50;;;12.05;;
6135;SDS011;24008;42.664;23.372;2022-10-31T13:18:12;12.15;;;5.32;;
6135;SDS011;24008;42.664;23.372;2022-10-31T13:20:47;11.07;;;4.72;;
6135;SDS011;24008;42.664;23.372;2022-10-31T13:23:18;13.82;;;5.15;;
6135;SDS011;24008;42.664;23.372;2022-10-31T13:25:53;15.05;;;5.47;;
6135;SDS011;24008;42.664;23.372;2022-10-31T13:28:31;9.38;;;4.38;;
6135;SDS011;24008;42.664;23.372;2022-10-31T13:31:02;9.93;;;4.45;;
6135;SDS011;24008;42.664;23.372;2022-10-31T13:33:29;14.82;;;4.82;;
6135;SDS011;24008;42.664;23.372;2022-10-31T13:36:05;13.15;;;5.07;;
6135;SDS011;24008;42.664;23.372;2022-10-31T13:38:40;10.77;;;4.88;;
6135;SDS011;24008;42.664;23.372;2022-10-31T13:41:16;11.13;;;5.10;;
6135;SDS011;24008;42.664;23.372;2022-10-31T13:44:00;12.23;;;4.30;;
6135;SDS011;24008;42.664;23.372;2022-10-31T13:46:36;13.10;;;4.82;;
6135;SDS011;24008;42.664;23.372;2022-10-31T13:49:18;8.65;;;4.35;;
6135;SDS011;24008;42.664;23.372;2022-10-31T13:51:50;10.95;;;5.03;;
6135;SDS011;24008;42.664;23.372;2022-10-31T13:54:21;6.32;;;4.40;;
6135;SDS011;24008;42.664;23.372;2022-10-31T13:56:49;8.40;;;4.50;;
6135;SDS011;24008;42.664;23.372;2022-10-31T13:59:19;21.23;;;9.13;;
6135;SDS011;24008;42.664;23.372;2022-10-31T14:01:49;9.43;;;4.65;;
6135;SDS011;24008;42.664;23.372;2022-10-31T14:04:20;14.18;;;7.07;;
6135;SDS011;24008;42.664;23.372;2022-10-31T14:06:51;10.70;;;5.10;;
6135;SDS011;24008;42.664;23.372;2022-10-31T14:09:32;11.15;;;6.35;;
6135;SDS011;24008;42.664;23.372;2022-10-31T14:12:05;13.52;;;4.68;;
6135;SDS011;24008;42.664;23.372;2022-10-31T14:14:42;11.13;;;5.28;;
6135;SDS011;24008;42.664;23.372;2022-10-31T14:17:20;9.93;;;5.78;;
6135;SDS011;24008;42.664;23.372;2022-10-31T14:19:58;12.68;;;4.28;;
6135;SDS011;24008;42.664;23.372;2022-10-31T14:22:29;9.82;;;4.63;;
6135;SDS011;24008;42.664;23.372;2022-10-31T14:24:57;14.07;;;5.00;;
6135;SDS011;24008;42.664;23.372;2022-10-31T14:30:20;17.42;;;4.90;;
6135;SDS011;24008;42.664;23.372;2022-10-31T14:32:53;11.25;;;4.95;;
6135;SDS011;24008;42.664;23.372;2022-10-31T14:35:24;14.93;;;5.65;;
6135;SDS011;24008;42.664;23.372;2022-10-31T14:37:59;14.75;;;5.28;;
6135;SDS011;24008;42.664;23.372;2022-10-31T14:41:02;12.73;;;5.40;;
6135;SDS011;24008;42.664;23.372;2022-10-31T14:43:46;10.27;;;5.80;;
6135;SDS011;24008;42.664;23.372;2022-10-31T14:46:29;14.27;;;5.43;;
6135;SDS011;24008;42.664;23.372;2022-10-31T14:49:10;9.35;;;5.20;;
6135;SDS011;24008;42.664;23.372;2022-10-31T14:51:45;10.23;;;4.55;;
6135;SDS011;24008;42.664;23.372;2022-10-31T14:54:15;12.75;;;4.53;;
6135;SDS011;24008;42.664;23.372;2022-10-31T14:56:47;11.43;;;4.93;;
6135;SDS011;24008;42.664;23.372;2022-10-31T14:59:17;14.63;;;5.97;;
6135;SDS011;24008;42.664;23.372;2022-10-31T15:01:57;15.30;;;5.75;;
6135;SDS011;24008;42.664;23.372;2022-10-31T15:04:28;16.20;;;6.97;;
6135;SDS011;24008;42.664;23.372;2022-10-31T15:06:59;11.75;;;5.03;;
6135;SDS011;24008;42.664;23.372;2022-10-31T15:09:31;11.80;;;4.90;;